Portada
METAR-TAF:

METAR-TAF

Aeroports :

Màlaga, Espanya

latitud: 36-40N, longitud: 004-29W, altitud: 16 m

Observació

L'informe es va fer fa 37 minuts, a les 21:30 UTC
Vent calma
Temperatura 20°C
Humitat 73%
Pressió 1024 hPa
Visibilitat 10 km o més
sense núvols per sota de 1500 mi sense presència de cumulonimbus.

METAR: LEMG 252130Z 00000KT CAVOK 20/15 Q1024 NOSIG

Hora: 00:07 (22:07 UTC)

Pronòstic

L'informe es va fer fa 5 hores i 7 minuts, a les 17:00 UTC
Pronòstic vàlid del 25 a les 18 UTC al 26 a les 18 UTC
Vent 8 kt del Sud-Est
Visibilitat 10 km o més
Escasses núvols a una alçada de 3000 ft
Evolucionant progressivament
l' 25 a les 20 UTC al 25 a les 22 UTC
Vent 6 kt del Oest/Nord-Oest
Evolucionant progressivament
l' 26 a les 08 UTC al 26 a les 10 UTC
Vent 6 kt del Sud-Est

TAF: LEMG 251700Z 2518/2618 14008KT 9999 FEW030 TX27/2613Z TN15/2606Z BECMG 2520/2522 29006KT BECMG 2608/2610 13006KT

Observacions i pronòstics meteorològics de més de 4000 aeroports (METAR i TAF).

Les estacions disponibles són els punts grocs i vermells al mapa.

Posi el ratolí al punt desitjat per veure el nom de l'estació.

Feu clic per veure les observacions i els pronòstics meteorològics.

Per canviar el mapa: feu clic els botons verds amb una creu de color negre per apropar; al botó verd amb un guió per allunyar la imatge; o en les fletxes verdes per a mapes adjacents.


METAR-TAF: